Flight Track Log - Related Links

Times and Time Zones

All times are in EDT time to prevent confusion due to time zone crossing. See the EGF3336 flight status page for this flight to view local times or setup timezone preferences in your user account.

Time Position Orientation Groundspeed Altitude Reporting Facility
EDT Latitude Longitude Course Direction KTS MPH feet Rate Location/Type
Mon 03:41:00 PM 33.2335 -96.8618 24° Northeast  Level Estimated
Mon 03:41:06 PM 32.7953 -97.0769 79° East 215 247 4,100  Level Fort Worth Center
Mon 03:42:00 PM 33.3457 -96.8028 333° Northwest  Level Estimated
Mon 03:42:08 PM 32.7642 -97.1492 243° Southwest 246 283 6,600  Level Fort Worth Center
Mon 03:43:00 PM 33.4579 -96.7436 333° Northwest  Level Estimated
Mon 03:43:10 PM 32.7722 -97.2314 277° West 250 288 8,800  Level Fort Worth Center
Mon 03:44:00 PM 33.5700 -96.6842 North  Level Estimated
Mon 03:44:12 PM 32.8381 -97.2733 332° Northwest 269 310 10,300  Level Fort Worth Center
Mon 03:45:00 PM 32.9990 -96.9847 157° South  Level Estimated
Mon 03:45:15 PM 32.9281 -97.2731 360° North 332 382 11,100  Level Fort Worth Center
Mon 03:46:00 PM 33.1011 -96.9313 79° East  Level Estimated
Mon 03:46:17 PM 33.0403 -97.2583 North 356 410 12,400  Level Fort Worth Center
Mon 03:47:19 PM 33.1325 -97.2233 18° North 372 428 13,800 1,452 Climbing Fort Worth Center
Mon 03:48:21 PM 33.2414 -97.1833 17° North 378 435 15,400 1,597 Climbing Fort Worth Center
Mon 03:49:23 PM 33.3561 -97.1422 17° North 386 444 17,100 1,548 Climbing Fort Worth Center
Mon 03:50:25 PM 33.4603 -97.1058 16° North 387 445 18,600 1,452 Climbing Fort Worth Center
Mon 03:51:27 PM 33.5675 -97.0928 North 388 447 20,100 1,488 Climbing Fort Worth Center
Mon 03:52:30 PM 33.6822 -97.0658 11° North 394 453 21,700 1,488 Climbing Fort Worth Center
Mon 03:53:32 PM 33.7844 -97.0033 27° Northeast 411 473 23,200 1,306 Climbing Fort Worth Center
Mon 03:54:34 PM 33.8758 -96.9500 26° Northeast 406 467 24,400 1,210 Climbing Fort Worth Center
Mon 03:55:36 PM 33.9989 -96.8781 26° Northeast 409 471 25,700 1,161 Climbing Fort Worth Center
Mon 03:56:38 PM 34.1075 -96.8139 26° Northeast 414 476 26,800 1,016 Climbing Fort Worth Center
Mon 03:57:40 PM 34.2186 -96.7489 26° Northeast 415 478 27,800 1,016 Climbing Fort Worth Center
Mon 03:58:42 PM 34.3156 -96.6939 25° Northeast 415 478 28,900 912 Climbing Fort Worth Center
Mon 03:59:45 PM 34.4200 -96.6306 27° Northeast 417 480 29,700 768 Climbing Fort Worth Center
Mon 04:00:47 PM 34.5267 -96.5669 26° Northeast 425 489 30,500 1,016 Climbing Fort Worth Center
Mon 04:01:49 PM 34.6561 -96.4908 26° Northeast 430 495 31,800 1,113 Climbing Fort Worth Center
Mon 04:02:51 PM 34.7647 -96.4264 26° Northeast 433 498 32,800 1,113 Climbing Fort Worth Center
Mon 04:03:53 PM 34.8728 -96.3619 26° Northeast 434 499 34,100 1,161 Climbing Fort Worth Center
Mon 04:04:55 PM 34.9789 -96.3008 25° Northeast 430 495 35,200 1,016 Climbing Fort Worth Center
Mon 04:05:57 PM 35.0819 -96.2383 26° Northeast 421 484 36,200 871 Climbing Fort Worth Center
Mon 04:06:59 PM 35.2064 -96.1633 26° Northeast 419 482 37,000 384 Climbing Fort Worth Center
Mon 04:08:02 PM 35.2894 -96.1144 26° Northeast 419 482 37,000  Level Fort Worth Center
Mon 04:09:04 PM 35.4214 -96.0347 26° Northeast 430 495 37,000  Level Fort Worth Center
Mon 04:09:40 PM 35.4858 -95.9942 27° Northeast 446 513 37,000  Level Kansas City Center
Mon 04:10:41 PM 35.6019 -95.9222 27° Northeast 459 528 37,000  Level Kansas City Center
Mon 04:11:45 PM 35.7200 -95.8503 26° Northeast 468 539 37,000  Level Kansas City Center
Mon 04:12:45 PM 35.8361 -95.7797 26° Northeast 467 537 37,000  Level Kansas City Center
Mon 04:13:49 PM 35.9767 -95.6950 26° Northeast 467 537 37,000  Level Kansas City Center
Mon 04:14:50 PM 36.0919 -95.6228 27° Northeast 468 539 37,000  Level Kansas City Center
Mon 04:15:53 PM 36.2092 -95.5503 27° Northeast 468 539 37,000  Level Kansas City Center
Mon 04:16:54 PM 36.3286 -95.4775 26° Northeast 475 547 37,000  Level Kansas City Center
Mon 04:17:56 PM 36.4461 -95.4036 27° Northeast 475 547 37,000  Level Kansas City Center
Mon 04:19:00 PM 36.5656 -95.3292 27° Northeast 475 547 37,000  Level Kansas City Center
Mon 04:20:00 PM 36.7003 -95.2447 27° Northeast 477 549 37,000  Level Kansas City Center
Mon 04:21:02 PM 36.8197 -95.1692 27° Northeast 478 550 37,000  Level Kansas City Center
Mon 04:22:05 PM 36.9397 -95.0947 26° Northeast 479 551 37,000  Level Kansas City Center
Mon 04:23:06 PM 37.0594 -95.0181 27° Northeast 480 552 37,000  Level Kansas City Center
Mon 04:24:10 PM 37.2039 -94.9278 26° Northeast 480 552 37,000  Level Kansas City Center
Mon 04:25:10 PM 37.3250 -94.8494 27° Northeast 484 557 37,000  Level Kansas City Center
Mon 04:26:12 PM 37.4450 -94.7744 26° Northeast 483 556 37,000  Level Kansas City Center
Mon 04:27:16 PM 37.5653 -94.6953 28° Northeast 483 556 37,000  Level Kansas City Center
Mon 04:28:16 PM 37.6931 -94.6136 27° Northeast 483 556 37,000  Level Kansas City Center
Mon 04:29:18 PM 37.8075 -94.5389 27° Northeast 483 556 37,000  Level Kansas City Center
Mon 04:30:21 PM 37.9406 -94.4517 27° Northeast 483 556 37,000  Level Kansas City Center
Mon 04:31:22 PM 38.0550 -94.3769 27° Northeast 483 556 37,000  Level Kansas City Center
Mon 04:32:26 PM 38.1875 -94.2903 27° Northeast 483 556 37,000  Level Kansas City Center
Mon 04:33:26 PM 38.3006 -94.2156 27° Northeast 483 556 37,000  Level Kansas City Center
Mon 04:34:28 PM 38.4344 -94.1286 27° Northeast 482 555 37,000  Level Kansas City Center
Mon 04:35:31 PM 38.5494 -94.0517 28° Northeast 483 556 37,000  Level Kansas City Center
Mon 04:36:33 PM 38.6842 -93.9614 28° Northeast 487 560 37,000  Level Kansas City Center
Mon 04:37:36 PM 38.8019 -93.8839 27° Northeast 493 567 37,000  Level Kansas City Center
Mon 04:38:37 PM 38.9406 -93.7906 28° Northeast 502 578 37,000  Level Kansas City Center
Mon 04:39:42 PM 39.0597 -93.7097 28° Northeast 502 578 37,000  Level Kansas City Center
Mon 04:40:42 PM 39.1981 -93.6161 28° Northeast 503 579 37,000  Level Kansas City Center
Mon 04:41:43 PM 39.3097 -93.5400 28° Northeast 505 581 37,000  Level Kansas City Center
Mon 04:42:46 PM 39.4583 -93.4406 27° Northeast 505 581 37,000 -97 Level Kansas City Center
Mon 04:43:47 PM 39.5789 -93.3586 28° Northeast 498 573 36,800 -629 Descending Kansas City Center
Mon 04:44:50 PM 39.6972 -93.2786 27° Northeast 489 563 35,700 -1,220 Descending Kansas City Center
Mon 04:45:50 PM 39.8169 -93.1931 29° Northeast 490 564 34,300 -1,403 Descending Kansas City Center
Mon 04:46:54 PM 39.9392 -93.1100 28° Northeast 493 567 32,800 -1,500 Descending Kansas City Center
Mon 04:47:54 PM 40.0747 -93.0142 28° Northeast 496 571 31,200 -1,306 Descending Kansas City Center
Mon 04:48:58 PM 40.2117 -92.9172 28° Northeast 498 573 30,100 -768 Descending Kansas City Center
Mon 04:49:59 PM 40.3317 -92.8344 28° Northeast 504 580 29,600 -488 Descending Kansas City Center
Mon 04:51:01 PM 40.4756 -92.7344 28° Northeast 517 595 29,100 -871 Descending Kansas City Center
Mon 04:52:03 PM 40.5908 -92.6486 29° Northeast 517 595 27,800 -2,016 Descending Kansas City Center
Mon 04:53:06 PM 40.7183 -92.5589 28° Northeast 517 595 24,900 -2,429 Descending Kansas City Center
Mon 04:54:09 PM 40.8364 -92.4728 29° Northeast 502 578 22,700 -2,390 Descending Kansas City Center
Mon 04:55:09 PM 40.9531 -92.3903 28° Northeast 485 558 20,000 -2,803 Descending Kansas City Center
Mon 04:56:26 PM 41.1117 -92.2775 28° Northeast 462 532 16,300 -2,633 Descending Chicago Center
Mon 04:57:28 PM 41.2175 -92.2011 28° Northeast 441 507 13,900 -2,208 Descending Chicago Center
Mon 04:58:31 PM 41.3167 -92.1264 30° Northeast 430 495 11,700 -1,403 Descending Chicago Center
Mon 04:59:32 PM 41.4378 -92.0408 28° Northeast 421 484 11,000 -780 Descending Chicago Center
Mon 05:00:34 PM 41.5283 -91.9742 29° Northeast 383 441 10,100 -1,161 Descending Chicago Center
Mon 05:01:36 PM 41.6081 -91.9133 30° Northeast 340 391 8,600 -1,548 Descending Chicago Center
Mon 05:02:38 PM 41.6942 -91.8917 11° North 325 374 6,900 -1,632 Descending Chicago Center
Mon 05:03:41 PM 41.7942 -91.8794 North 308 354 5,200 -1,296 Descending Chicago Center
Mon 05:04:43 PM 41.8700 -91.8892 355° North 297 342 4,200 -581 Descending Chicago Center
Mon 05:05:45 PM 41.9356 -91.9164 343° North 269 310 4,000 -97 Descending Chicago Center
Mon 05:06:47 PM 42.0008 -91.9003 10° North 252 290 4,000 -48 Level Chicago Center
Mon 05:07:49 PM 41.9928 -91.8433 101° East 205 236 3,900 -532 Descending Chicago Center
Mon 05:08:51 PM 41.9581 -91.7994 137° Southeast 163 188 2,900 -871 Descending Chicago Center
Mon 05:09:53 PM 41.9311 -91.7642 136° Southeast 148 170 2,100 -774 Descending Chicago Center
Mon 05:10:55 PM 41.9050 -91.7303 136° Southeast 139 160 1,300 -774 Descending Chicago Center

Login

Don't have an account? Register now (free) for customized features, flight alerts, and more!